Impacts TAF Board INFO
FOR SITUATIONAL AWARENESS. NOT TO BE USED FOR FLIGHT PLANNING PURPOSES.
IDs:

KEWR - Newark Intl, NJ, US

Issued at 2345 UTC 20 Apr 2018
Updated at 0151 UTC 21 Apr 2018
Potential Impact None Slight Moderate High
Time0051Z 21/02Z 21/03Z 21/04Z 21/05Z 21/06Z 21/07Z 21/08Z 21/09Z 21/10Z 21/11Z 21/12Z 21/13Z 21/14Z>>
Type OBS PRVL PRVL PRVL PRVL PRVL PRVL PRVL PRVL PRVL PRVL PRVL PRVL PRVL
VIS 10 >6 >6 >6 >6 >6 >6 >6 >6 >6 >6 >6 >6 >6
CIG -- -- -- -- -- -- -- -- -- -- -- -- -- --
Cover FEW SKC SKC SKC SKC SKC SKC SKC SKC SKC SKC SKC SKC SKC
FltCat VFR VFR VFR VFR VFR VFR VFR VFR VFR VFR VFR VFR VFR VFR
WX -- -- -- -- -- -- -- -- -- -- -- -- -- --
WDir 340 330 330 320 320 320 320 320 320 320 320 320 320 320
WSpd 16 12 12 10 10 6 6 6 6 6 6 10 10 10
WGst 24 18 18 -- -- -- -- -- -- -- -- -- -- --

Raw TAF
KEWR 202345Z 2100/2206 31016G23KT P6SM FEW050
  FM210200 33012G18KT P6SM SKC
  FM210400 32010KT P6SM SKC
  FM210600 32006KT P6SM SKC
  FM211200 32010KT P6SM SKC
  FM211500 32010G18KT P6SM FEW040
  FM212100 32012G20KT P6SM FEW040 FEW250
  FM220200 33008KT P6SM SCT250


Raw METAR
KEWR 210051Z 34016G24KT 10SM FEW055 07/M05 A3034 RMK AO2 SLP272 T00671050
KEWR 202351Z 33014G24KT 10SM FEW055 07/M06 A3031 RMK AO2 SLP264 T00721056 10117 20072 53034
KEWR 202251Z 31017G26KT 10SM FEW055 08/M06 A3028 RMK AO2 PK WND 32028/2228 SLP251 T00831056

METAR Board
Radar Display
Forecast Discussion

FOR SITUATIONAL AWARENESS. NOT TO BE USED FOR FLIGHT PLANNING PURPOSES.